sensor_id;sensor_type;location;lat;lon;timestamp;pressure;altitude;pressure_sealevel;temperature;humidity
68107;BME280;54892;47.488;19.026;2023-04-26T00:01:31;99290.91;;;10.27;66.76
68107;BME280;54892;47.488;19.026;2023-04-26T00:04:33;99296.44;;;10.36;66.65
68107;BME280;54892;47.488;19.026;2023-04-26T00:07:37;99288.00;;;10.39;66.85
68107;BME280;54892;47.488;19.026;2023-04-26T00:10:41;99295.62;;;10.41;67.21
68107;BME280;54892;47.488;19.026;2023-04-26T00:13:44;99302.50;;;10.42;67.37
68107;BME280;54892;47.488;19.026;2023-04-26T00:16:47;99298.50;;;10.44;67.49
68107;BME280;54892;47.488;19.026;2023-04-26T00:19:50;99307.75;;;10.36;67.59
68107;BME280;54892;47.488;19.026;2023-04-26T00:22:55;99296.16;;;10.38;67.58
68107;BME280;54892;47.488;19.026;2023-04-26T00:25:58;99304.06;;;10.43;67.16
68107;BME280;54892;47.488;19.026;2023-04-26T00:29:01;99301.97;;;10.45;66.87
68107;BME280;54892;47.488;19.026;2023-04-26T00:32:05;99306.94;;;10.46;66.78
68107;BME280;54892;47.488;19.026;2023-04-26T00:35:09;99307.78;;;10.42;66.71
68107;BME280;54892;47.488;19.026;2023-04-26T00:38:13;99314.37;;;10.34;66.91
68107;BME280;54892;47.488;19.026;2023-04-26T00:41:16;99320.47;;;10.29;67.20
68107;BME280;54892;47.488;19.026;2023-04-26T00:44:19;99312.31;;;10.15;67.63
68107;BME280;54892;47.488;19.026;2023-04-26T00:47:22;99322.03;;;10.25;67.47
68107;BME280;54892;47.488;19.026;2023-04-26T00:50:26;99318.91;;;10.18;67.66
68107;BME280;54892;47.488;19.026;2023-04-26T00:53:30;99317.06;;;10.13;68.03
68107;BME280;54892;47.488;19.026;2023-04-26T00:56:34;99320.50;;;10.09;68.00
68107;BME280;54892;47.488;19.026;2023-04-26T00:59:39;99338.47;;;10.01;67.83
68107;BME280;54892;47.488;19.026;2023-04-26T01:02:41;99316.09;;;9.94;68.11
68107;BME280;54892;47.488;19.026;2023-04-26T01:05:44;99322.41;;;9.82;67.97
68107;BME280;54892;47.488;19.026;2023-04-26T01:08:49;99336.91;;;9.90;67.69
68107;BME280;54892;47.488;19.026;2023-04-26T01:11:53;99336.13;;;9.84;67.89
68107;BME280;54892;47.488;19.026;2023-04-26T01:14:58;99339.28;;;9.86;67.90
68107;BME280;54892;47.488;19.026;2023-04-26T01:18:01;99341.41;;;9.89;67.79
68107;BME280;54892;47.488;19.026;2023-04-26T01:21:05;99341.69;;;9.67;68.66
68107;BME280;54892;47.488;19.026;2023-04-26T01:24:10;99344.81;;;9.74;68.48
68107;BME280;54892;47.488;19.026;2023-04-26T01:27:13;99353.28;;;9.71;68.45
68107;BME280;54892;47.488;19.026;2023-04-26T01:30:17;99358.81;;;9.70;68.74
68107;BME280;54892;47.488;19.026;2023-04-26T01:33:20;99356.69;;;9.67;68.83
68107;BME280;54892;47.488;19.026;2023-04-26T01:36:23;99361.44;;;9.70;68.45
68107;BME280;54892;47.488;19.026;2023-04-26T01:39:28;99361.19;;;9.66;68.70
68107;BME280;54892;47.488;19.026;2023-04-26T01:42:31;99361.97;;;9.67;68.67
68107;BME280;54892;47.488;19.026;2023-04-26T01:45:34;99377.78;;;9.67;68.62
68107;BME280;54892;47.488;19.026;2023-04-26T01:48:37;99378.03;;;9.60;68.70
68107;BME280;54892;47.488;19.026;2023-04-26T01:51:40;99375.41;;;9.50;68.92
68107;BME280;54892;47.488;19.026;2023-04-26T01:54:45;99378.81;;;9.50;68.50
68107;BME280;54892;47.488;19.026;2023-04-26T01:57:48;99385.41;;;9.37;68.92
68107;BME280;54892;47.488;19.026;2023-04-26T02:00:50;99389.63;;;9.43;68.93
68107;BME280;54892;47.488;19.026;2023-04-26T02:03:53;99388.56;;;9.34;68.93
68107;BME280;54892;47.488;19.026;2023-04-26T02:06:56;99392.53;;;9.32;69.06
68107;BME280;54892;47.488;19.026;2023-04-26T02:10:00;99391.97;;;9.35;68.80
68107;BME280;54892;47.488;19.026;2023-04-26T02:13:03;99391.97;;;9.24;68.86
68107;BME280;54892;47.488;19.026;2023-04-26T02:16:06;99400.94;;;9.28;68.84
68107;BME280;54892;47.488;19.026;2023-04-26T02:19:09;99393.03;;;9.23;68.89
68107;BME280;54892;47.488;19.026;2023-04-26T02:22:12;99406.72;;;9.25;68.49
68107;BME280;54892;47.488;19.026;2023-04-26T02:25:16;99414.09;;;9.18;68.75
68107;BME280;54892;47.488;19.026;2023-04-26T02:28:19;99405.94;;;9.20;68.57
68107;BME280;54892;47.488;19.026;2023-04-26T02:31:22;99406.19;;;9.23;68.56
68107;BME280;54892;47.488;19.026;2023-04-26T02:34:26;99404.06;;;9.15;68.75
68107;BME280;54892;47.488;19.026;2023-04-26T02:37:29;99414.09;;;9.18;68.74
68107;BME280;54892;47.488;19.026;2023-04-26T02:40:34;99423.56;;;9.14;68.91
68107;BME280;54892;47.488;19.026;2023-04-26T02:43:37;99419.31;;;9.08;68.62
68107;BME280;54892;47.488;19.026;2023-04-26T02:46:40;99417.72;;;9.07;68.60
68107;BME280;54892;47.488;19.026;2023-04-26T02:49:43;99409.84;;;9.07;68.45
68107;BME280;54892;47.488;19.026;2023-04-26T02:52:45;99411.44;;;9.13;68.44
68107;BME280;54892;47.488;19.026;2023-04-26T02:55:50;99415.63;;;9.09;67.89
68107;BME280;54892;47.488;19.026;2023-04-26T02:58:52;99419.81;;;9.05;67.69
68107;BME280;54892;47.488;19.026;2023-04-26T03:01:56;99417.97;;;9.00;67.77
68107;BME280;54892;47.488;19.026;2023-04-26T03:04:59;99431.13;;;8.95;67.73
68107;BME280;54892;47.488;19.026;2023-04-26T03:08:03;99429.53;;;8.89;67.85
68107;BME280;54892;47.488;19.026;2023-04-26T03:11:07;99431.34;;;8.83;67.89
68107;BME280;54892;47.488;19.026;2023-04-26T03:14:10;99437.69;;;8.87;67.61
68107;BME280;54892;47.488;19.026;2023-04-26T03:17:14;99439.78;;;8.85;67.34
68107;BME280;54892;47.488;19.026;2023-04-26T03:20:17;99438.72;;;8.86;67.14
68107;BME280;54892;47.488;19.026;2023-04-26T03:23:20;99445.28;;;8.83;66.93
68107;BME280;54892;47.488;19.026;2023-04-26T03:26:25;99446.03;;;8.74;67.36
68107;BME280;54892;47.488;19.026;2023-04-26T03:29:28;99441.56;;;8.74;67.21
68107;BME280;54892;47.488;19.026;2023-04-26T03:32:32;99448.62;;;8.63;67.22
68107;BME280;54892;47.488;19.026;2023-04-26T03:35:35;99451.22;;;8.58;67.37
68107;BME280;54892;47.488;19.026;2023-04-26T03:38:38;99444.66;;;8.61;67.29
68107;BME280;54892;47.488;19.026;2023-04-26T03:41:42;99450.97;;;8.65;67.42
68107;BME280;54892;47.488;19.026;2023-04-26T03:44:45;99458.13;;;8.75;66.88
68107;BME280;54892;47.488;19.026;2023-04-26T03:47:48;99458.63;;;8.66;66.98
68107;BME280;54892;47.488;19.026;2023-04-26T03:50:51;99456.75;;;8.57;67.47
68107;BME280;54892;47.488;19.026;2023-04-26T03:53:54;99466.00;;;8.64;67.33
68107;BME280;54892;47.488;19.026;2023-04-26T03:56:58;99466.03;;;8.70;67.18
68107;BME280;54892;47.488;19.026;2023-04-26T04:00:01;99464.97;;;8.76;67.06
68107;BME280;54892;47.488;19.026;2023-04-26T04:03:05;99481.78;;;8.64;67.01
68107;BME280;54892;47.488;19.026;2023-04-26T04:06:08;99480.72;;;8.65;67.17
68107;BME280;54892;47.488;19.026;2023-04-26T04:09:11;99487.00;;;8.59;67.13
68107;BME280;54892;47.488;19.026;2023-04-26T04:12:16;99488.13;;;8.68;66.88
68107;BME280;54892;47.488;19.026;2023-04-26T04:15:19;99499.19;;;8.71;66.65
68107;BME280;54892;47.488;19.026;2023-04-26T04:18:22;99489.16;;;8.67;66.54
68107;BME280;54892;47.488;19.026;2023-04-26T04:21:25;99497.06;;;8.73;66.42
68107;BME280;54892;47.488;19.026;2023-04-26T04:24:28;99492.84;;;8.66;66.75
68107;BME280;54892;47.488;19.026;2023-04-26T04:27:33;99496.78;;;8.69;66.57
68107;BME280;54892;47.488;19.026;2023-04-26T04:30:37;99504.97;;;8.73;66.07
68107;BME280;54892;47.488;19.026;2023-04-26T04:33:40;99514.69;;;8.72;65.97
68107;BME280;54892;47.488;19.026;2023-04-26T04:36:43;99517.59;;;8.71;66.02
68107;BME280;54892;47.488;19.026;2023-04-26T04:39:46;99523.22;;;8.90;65.68
68107;BME280;54892;47.488;19.026;2023-04-26T04:42:50;99541.47;;;9.07;65.03
68107;BME280;54892;47.488;19.026;2023-04-26T04:45:54;99534.19;;;9.29;63.76
68107;BME280;54892;47.488;19.026;2023-04-26T04:48:57;99537.19;;;9.64;62.74
68107;BME280;54892;47.488;19.026;2023-04-26T04:52:00;99539.13;;;10.10;61.20
68107;BME280;54892;47.488;19.026;2023-04-26T04:55:03;99543.09;;;10.44;59.89
68107;BME280;54892;47.488;19.026;2023-04-26T04:58:07;99553.34;;;10.81;58.51
68107;BME280;54892;47.488;19.026;2023-04-26T05:01:10;99560.16;;;10.98;57.75
68107;BME280;54892;47.488;19.026;2023-04-26T05:04:13;99564.97;;;10.65;58.14
68107;BME280;54892;47.488;19.026;2023-04-26T05:07:16;99567.63;;;10.55;59.17
68107;BME280;54892;47.488;19.026;2023-04-26T05:10:19;99575.47;;;10.91;58.14
68107;BME280;54892;47.488;19.026;2023-04-26T05:13:23;99573.91;;;11.00;57.82
68107;BME280;54892;47.488;19.026;2023-04-26T05:16:26;99581.19;;;11.29;56.95
68107;BME280;54892;47.488;19.026;2023-04-26T05:19:29;99573.38;;;11.64;56.03
68107;BME280;54892;47.488;19.026;2023-04-26T05:22:32;99584.28;;;11.52;55.57
68107;BME280;54892;47.488;19.026;2023-04-26T05:25:37;99584.78;;;11.54;55.42
68107;BME280;54892;47.488;19.026;2023-04-26T05:28:42;99586.94;;;11.97;54.20
68107;BME280;54892;47.488;19.026;2023-04-26T05:31:45;99600.34;;;12.16;51.39
68107;BME280;54892;47.488;19.026;2023-04-26T05:34:48;99595.19;;;11.95;51.75
68107;BME280;54892;47.488;19.026;2023-04-26T05:37:51;99593.50;;;11.60;52.54
68107;BME280;54892;47.488;19.026;2023-04-26T05:40:55;99595.72;;;11.92;52.07
68107;BME280;54892;47.488;19.026;2023-04-26T05:43:59;99596.19;;;12.05;51.15
68107;BME280;54892;47.488;19.026;2023-04-26T05:47:02;99601.31;;;11.85;51.01
68107;BME280;54892;47.488;19.026;2023-04-26T05:50:05;99596.41;;;11.63;51.48
68107;BME280;54892;47.488;19.026;2023-04-26T05:53:09;99613.37;;;11.41;51.32
68107;BME280;54892;47.488;19.026;2023-04-26T05:56:11;99615.81;;;11.27;51.10
68107;BME280;54892;47.488;19.026;2023-04-26T05:59:15;99615.09;;;10.91;52.11
68107;BME280;54892;47.488;19.026;2023-04-26T06:02:18;99610.34;;;10.77;52.38
68107;BME280;54892;47.488;19.026;2023-04-26T06:05:21;99622.50;;;10.78;52.58
68107;BME280;54892;47.488;19.026;2023-04-26T06:08:24;99611.41;;;10.87;52.56
68107;BME280;54892;47.488;19.026;2023-04-26T06:11:28;99619.00;;;11.24;50.90
68107;BME280;54892;47.488;19.026;2023-04-26T06:14:33;99621.00;;;11.53;50.96
68107;BME280;54892;47.488;19.026;2023-04-26T06:17:36;99625.44;;;11.68;49.03
68107;BME280;54892;47.488;19.026;2023-04-26T06:20:39;99632.38;;;11.54;49.21
68107;BME280;54892;47.488;19.026;2023-04-26T06:23:42;99635.06;;;11.43;49.09
68107;BME280;54892;47.488;19.026;2023-04-26T06:26:45;99631.12;;;11.36;49.75
68107;BME280;54892;47.488;19.026;2023-04-26T06:29:49;99635.91;;;11.29;49.82
68107;BME280;54892;47.488;19.026;2023-04-26T06:32:53;99639.34;;;11.19;49.78
68107;BME280;54892;47.488;19.026;2023-04-26T06:35:56;99633.03;;;11.09;49.66
68107;BME280;54892;47.488;19.026;2023-04-26T06:38:59;99625.16;;;10.89;49.58
68107;BME280;54892;47.488;19.026;2023-04-26T06:42:02;99635.16;;;10.76;50.06
68107;BME280;54892;47.488;19.026;2023-04-26T06:45:07;99629.63;;;10.52;50.26
68107;BME280;54892;47.488;19.026;2023-04-26T06:48:10;99634.87;;;10.31;50.26
68107;BME280;54892;47.488;19.026;2023-04-26T06:51:14;99635.72;;;10.42;50.16
68107;BME280;54892;47.488;19.026;2023-04-26T06:54:16;99637.28;;;10.38;50.17
68107;BME280;54892;47.488;19.026;2023-04-26T06:57:19;99634.34;;;10.29;51.04
68107;BME280;54892;47.488;19.026;2023-04-26T07:00:24;99638.31;;;10.27;50.44
68107;BME280;54892;47.488;19.026;2023-04-26T07:03:28;99634.63;;;10.43;50.61
68107;BME280;54892;47.488;19.026;2023-04-26T07:06:31;99622.00;;;10.66;50.27
68107;BME280;54892;47.488;19.026;2023-04-26T07:09:35;99632.22;;;11.19;49.34
68107;BME280;54892;47.488;19.026;2023-04-26T07:12:38;99635.09;;;12.04;47.21
68107;BME280;54892;47.488;19.026;2023-04-26T07:15:42;99629.44;;;13.63;42.68
68107;BME280;54892;47.488;19.026;2023-04-26T07:18:45;99626.25;;;15.74;37.78
68107;BME280;54892;47.488;19.026;2023-04-26T07:21:48;99640.25;;;17.65;34.10
68107;BME280;54892;47.488;19.026;2023-04-26T07:24:51;99645.78;;;18.65;30.44
68107;BME280;54892;47.488;19.026;2023-04-26T07:27:54;99646.38;;;19.27;29.03
68107;BME280;54892;47.488;19.026;2023-04-26T07:30:59;99659.69;;;20.17;26.41
68107;BME280;54892;47.488;19.026;2023-04-26T07:34:02;99666.34;;;20.32;25.95
68107;BME280;54892;47.488;19.026;2023-04-26T07:37:04;99664.88;;;20.56;25.56
68107;BME280;54892;47.488;19.026;2023-04-26T07:40:09;99678.28;;;21.02;25.04
68107;BME280;54892;47.488;19.026;2023-04-26T07:43:14;99671.94;;;20.73;24.82
68107;BME280;54892;47.488;19.026;2023-04-26T07:46:18;99675.91;;;19.40;26.07
68107;BME280;54892;47.488;19.026;2023-04-26T07:49:21;99670.28;;;17.97;27.08
68107;BME280;54892;47.488;19.026;2023-04-26T07:52:24;99680.47;;;17.77;27.50
68107;BME280;54892;47.488;19.026;2023-04-26T07:55:27;99687.59;;;18.00;28.03
68107;BME280;54892;47.488;19.026;2023-04-26T07:58:30;99682.75;;;18.46;27.42
68107;BME280;54892;47.488;19.026;2023-04-26T08:01:36;99698.78;;;18.28;27.81
68107;BME280;54892;47.488;19.026;2023-04-26T08:04:41;99681.66;;;17.45;29.32
68107;BME280;54892;47.488;19.026;2023-04-26T08:07:48;99702.53;;;17.11;29.82
68107;BME280;54892;47.488;19.026;2023-04-26T08:10:51;99703.84;;;16.32;31.53
68107;BME280;54892;47.488;19.026;2023-04-26T08:13:55;99698.75;;;16.21;31.92
68107;BME280;54892;47.488;19.026;2023-04-26T08:16:59;99710.22;;;15.38;32.84
68107;BME280;54892;47.488;19.026;2023-04-26T08:20:02;99708.19;;;15.02;34.03
68107;BME280;54892;47.488;19.026;2023-04-26T08:23:06;99719.63;;;14.64;33.95
68107;BME280;54892;47.488;19.026;2023-04-26T08:26:09;99708.75;;;14.46;33.70
68107;BME280;54892;47.488;19.026;2023-04-26T08:29:12;99708.38;;;13.96;33.97
68107;BME280;54892;47.488;19.026;2023-04-26T08:32:18;99716.00;;;13.78;34.06
68107;BME280;54892;47.488;19.026;2023-04-26T08:35:21;99712.88;;;13.71;34.54
68107;BME280;54892;47.488;19.026;2023-04-26T08:38:24;99711.06;;;13.91;34.82
68107;BME280;54892;47.488;19.026;2023-04-26T08:41:26;99706.44;;;14.01;34.64
68107;BME280;54892;47.488;19.026;2023-04-26T08:44:31;99705.47;;;14.16;34.30
68107;BME280;54892;47.488;19.026;2023-04-26T08:47:39;99715.31;;;13.92;33.56
68107;BME280;54892;47.488;19.026;2023-04-26T08:50:45;99710.34;;;13.61;34.70
68107;BME280;54892;47.488;19.026;2023-04-26T08:53:47;99712.09;;;13.46;34.04
68107;BME280;54892;47.488;19.026;2023-04-26T08:56:53;99734.47;;;13.35;34.71
68107;BME280;54892;47.488;19.026;2023-04-26T08:59:56;99726.66;;;13.19;35.24
68107;BME280;54892;47.488;19.026;2023-04-26T09:03:01;99737.16;;;13.30;34.48
68107;BME280;54892;47.488;19.026;2023-04-26T09:06:04;99721.72;;;13.37;34.66
68107;BME280;54892;47.488;19.026;2023-04-26T09:09:08;99716.94;;;13.39;34.19
68107;BME280;54892;47.488;19.026;2023-04-26T09:12:11;99724.97;;;13.29;34.59
68107;BME280;54892;47.488;19.026;2023-04-26T09:15:14;99722.22;;;13.68;34.70
68107;BME280;54892;47.488;19.026;2023-04-26T09:18:19;99728.22;;;13.20;34.63
68107;BME280;54892;47.488;19.026;2023-04-26T09:21:22;99720.81;;;13.22;35.15
68107;BME280;54892;47.488;19.026;2023-04-26T09:24:24;99704.56;;;13.29;34.87
68107;BME280;54892;47.488;19.026;2023-04-26T09:27:31;99730.00;;;13.30;34.20
68107;BME280;54892;47.488;19.026;2023-04-26T09:30:37;99722.41;;;13.18;34.08
68107;BME280;54892;47.488;19.026;2023-04-26T09:37:00;99728.16;;;13.25;34.51
68107;BME280;54892;47.488;19.026;2023-04-26T09:40:04;99727.34;;;13.01;35.36
68107;BME280;54892;47.488;19.026;2023-04-26T09:43:11;99721.63;;;12.88;35.60
68107;BME280;54892;47.488;19.026;2023-04-26T09:46:19;99720.16;;;13.01;34.22
68107;BME280;54892;47.488;19.026;2023-04-26T09:49:24;99737.69;;;13.27;33.97
68107;BME280;54892;47.488;19.026;2023-04-26T09:52:28;99731.94;;;13.19;34.17
68107;BME280;54892;47.488;19.026;2023-04-26T09:55:31;99727.28;;;13.40;34.85
68107;BME280;54892;47.488;19.026;2023-04-26T09:58:36;99726.72;;;13.38;33.89
68107;BME280;54892;47.488;19.026;2023-04-26T10:01:39;99718.69;;;13.19;34.30
68107;BME280;54892;47.488;19.026;2023-04-26T10:04:43;99730.03;;;13.25;34.66
68107;BME280;54892;47.488;19.026;2023-04-26T10:07:47;99725.59;;;13.20;34.96
68107;BME280;54892;47.488;19.026;2023-04-26T10:10:50;99704.19;;;13.41;34.35
68107;BME280;54892;47.488;19.026;2023-04-26T10:13:53;99719.53;;;13.44;32.64
68107;BME280;54892;47.488;19.026;2023-04-26T10:16:56;99718.09;;;13.28;33.67
68107;BME280;54892;47.488;19.026;2023-04-26T10:19:59;99714.41;;;13.53;33.75
68107;BME280;54892;47.488;19.026;2023-04-26T10:23:07;99725.19;;;13.86;33.57
68107;BME280;54892;47.488;19.026;2023-04-26T10:36:20;99728.31;;;13.93;29.95
68107;BME280;54892;47.488;19.026;2023-04-26T10:39:25;99728.94;;;14.04;30.06
68107;BME280;54892;47.488;19.026;2023-04-26T10:42:28;99715.31;;;13.92;30.79
68107;BME280;54892;47.488;19.026;2023-04-26T10:45:32;99710.87;;;14.06;31.73
68107;BME280;54892;47.488;19.026;2023-04-26T10:48:35;99736.91;;;14.04;31.74
68107;BME280;54892;47.488;19.026;2023-04-26T10:51:38;99740.25;;;13.91;31.74
68107;BME280;54892;47.488;19.026;2023-04-26T10:54:50;99730.44;;;13.91;31.33
68107;BME280;54892;47.488;19.026;2023-04-26T10:57:53;99729.72;;;13.85;31.33
68107;BME280;54892;47.488;19.026;2023-04-26T11:01:03;99739.81;;;13.59;32.86
68107;BME280;54892;47.488;19.026;2023-04-26T11:04:07;99736.69;;;13.52;33.75
68107;BME280;54892;47.488;19.026;2023-04-26T11:07:10;99733.41;;;13.36;33.91
68107;BME280;54892;47.488;19.026;2023-04-26T11:10:22;99738.69;;;13.36;33.79
68107;BME280;54892;47.488;19.026;2023-04-26T11:13:25;99755.88;;;13.44;32.17
68107;BME280;54892;47.488;19.026;2023-04-26T11:16:28;99737.69;;;13.27;31.80
68107;BME280;54892;47.488;19.026;2023-04-26T11:19:31;99730.03;;;13.25;32.40
68107;BME280;54892;47.488;19.026;2023-04-26T11:22:38;99736.19;;;13.20;31.44
68107;BME280;54892;47.488;19.026;2023-04-26T11:25:42;99721.00;;;12.97;32.77
68107;BME280;54892;47.488;19.026;2023-04-26T11:28:46;99731.09;;;12.94;33.56
68107;BME280;54892;47.488;19.026;2023-04-26T11:31:51;99731.78;;;13.05;33.38
68107;BME280;54892;47.488;19.026;2023-04-26T11:34:54;99732.66;;;12.95;32.40
68107;BME280;54892;47.488;19.026;2023-04-26T11:37:57;99732.28;;;13.13;32.52
68107;BME280;54892;47.488;19.026;2023-04-26T11:41:02;99730.53;;;13.57;33.58
68107;BME280;54892;47.488;19.026;2023-04-26T11:44:05;99732.97;;;13.77;32.14
68107;BME280;54892;47.488;19.026;2023-04-26T11:47:08;99748.53;;;14.08;31.32
68107;BME280;54892;47.488;19.026;2023-04-26T11:50:11;99740.22;;;13.96;30.67
68107;BME280;54892;47.488;19.026;2023-04-26T11:53:14;99739.03;;;13.83;31.13
68107;BME280;54892;47.488;19.026;2023-04-26T11:56:19;99743.53;;;13.58;30.39
68107;BME280;54892;47.488;19.026;2023-04-26T11:59:23;99741.16;;;13.27;31.75
68107;BME280;54892;47.488;19.026;2023-04-26T12:02:28;99733.75;;;13.24;31.87
68107;BME280;54892;47.488;19.026;2023-04-26T12:05:31;99736.13;;;13.25;32.78
68107;BME280;54892;47.488;19.026;2023-04-26T12:08:34;99741.03;;;13.43;32.77
68107;BME280;54892;47.488;19.026;2023-04-26T12:11:39;99746.12;;;13.34;31.31
68107;BME280;54892;47.488;19.026;2023-04-26T12:14:42;99738.97;;;13.34;31.72
68107;BME280;54892;47.488;19.026;2023-04-26T12:17:52;99732.66;;;13.30;31.97
68107;BME280;54892;47.488;19.026;2023-04-26T12:20:56;99734.16;;;13.36;32.92
68107;BME280;54892;47.488;19.026;2023-04-26T12:23:59;99732.91;;;13.29;32.67
68107;BME280;54892;47.488;19.026;2023-04-26T12:27:04;99737.69;;;13.27;32.61
68107;BME280;54892;47.488;19.026;2023-04-26T12:30:08;99745.62;;;13.32;33.12
68107;BME280;54892;47.488;19.026;2023-04-26T12:33:11;99745.62;;;13.32;32.86
68107;BME280;54892;47.488;19.026;2023-04-26T12:36:17;99749.50;;;13.10;31.85
68107;BME280;54892;47.488;19.026;2023-04-26T12:39:20;99747.16;;;13.08;30.90
68107;BME280;54892;47.488;19.026;2023-04-26T12:42:24;99747.16;;;13.08;31.22
68107;BME280;54892;47.488;19.026;2023-04-26T12:45:27;99755.09;;;13.08;31.40
68107;BME280;54892;47.488;19.026;2023-04-26T12:48:30;99743.84;;;13.22;32.05
68107;BME280;54892;47.488;19.026;2023-04-26T12:51:33;99756.22;;;13.32;32.14
68107;BME280;54892;47.488;19.026;2023-04-26T12:54:36;99756.31;;;13.21;32.54
68107;BME280;54892;47.488;19.026;2023-04-26T12:57:40;99759.22;;;12.90;33.68
68107;BME280;54892;47.488;19.026;2023-04-26T13:00:43;99759.22;;;12.90;33.61
68107;BME280;54892;47.488;19.026;2023-04-26T13:03:46;99760.31;;;12.84;33.49
68107;BME280;54892;47.488;19.026;2023-04-26T13:06:49;99757.78;;;13.03;33.33
68107;BME280;54892;47.488;19.026;2023-04-26T13:09:52;99759.66;;;13.03;34.01
68107;BME280;54892;47.488;19.026;2023-04-26T13:12:57;99760.19;;;13.00;34.07
68107;BME280;54892;47.488;19.026;2023-04-26T13:16:00;99766.75;;;13.07;33.56
68107;BME280;54892;47.488;19.026;2023-04-26T13:19:03;99761.66;;;13.16;33.83
68107;BME280;54892;47.488;19.026;2023-04-26T13:22:06;99764.47;;;13.30;33.20
68107;BME280;54892;47.488;19.026;2023-04-26T13:25:11;99767.69;;;13.22;33.18
68107;BME280;54892;47.488;19.026;2023-04-26T13:28:17;99776.75;;;13.16;32.84
68107;BME280;54892;47.488;19.026;2023-04-26T13:31:20;99778.25;;;12.92;33.05
68107;BME280;54892;47.488;19.026;2023-04-26T13:34:23;99772.84;;;13.08;32.54
68107;BME280;54892;47.488;19.026;2023-04-26T13:37:26;99779.69;;;13.14;33.03
68107;BME280;54892;47.488;19.026;2023-04-26T13:40:29;99778.28;;;13.22;32.15
68107;BME280;54892;47.488;19.026;2023-04-26T13:43:34;99784.00;;;13.05;31.52
68107;BME280;54892;47.488;19.026;2023-04-26T13:46:37;99770.97;;;13.14;31.58
68107;BME280;54892;47.488;19.026;2023-04-26T13:49:40;99765.56;;;12.89;31.48
68107;BME280;54892;47.488;19.026;2023-04-26T13:52:43;99781.72;;;12.88;31.54
68107;BME280;54892;47.488;19.026;2023-04-26T13:55:46;99778.22;;;12.98;32.49
68107;BME280;54892;47.488;19.026;2023-04-26T13:58:53;99784.06;;;12.94;32.81
68107;BME280;54892;47.488;19.026;2023-04-26T14:01:56;99805.78;;;12.97;33.21
68107;BME280;54892;47.488;19.026;2023-04-26T14:05:00;99795.97;;;12.97;33.42
68107;BME280;54892;47.488;19.026;2023-04-26T14:08:03;99792.75;;;13.00;33.85
68107;BME280;54892;47.488;19.026;2023-04-26T14:11:06;99789.31;;;13.05;33.63
68107;BME280;54892;47.488;19.026;2023-04-26T14:14:11;99796.75;;;13.03;33.53
68107;BME280;54892;47.488;19.026;2023-04-26T14:17:13;99796.78;;;12.92;33.09
68107;BME280;54892;47.488;19.026;2023-04-26T14:20:16;99790.38;;;12.64;32.27
68107;BME280;54892;47.488;19.026;2023-04-26T14:23:20;99799.84;;;12.70;32.27
68107;BME280;54892;47.488;19.026;2023-04-26T14:26:23;99788.50;;;13.04;32.47
68107;BME280;54892;47.488;19.026;2023-04-26T14:29:28;99792.84;;;13.24;32.52
68107;BME280;54892;47.488;19.026;2023-04-26T14:32:31;99784.84;;;13.30;32.05
68107;BME280;54892;47.488;19.026;2023-04-26T14:35:34;99786.13;;;13.37;32.00
68107;BME280;54892;47.488;19.026;2023-04-26T14:38:39;99791.97;;;13.00;32.59
68107;BME280;54892;47.488;19.026;2023-04-26T14:41:42;99791.97;;;13.05;32.39
68107;BME280;54892;47.488;19.026;2023-04-26T14:44:47;99801.53;;;12.95;31.96
68107;BME280;54892;47.488;19.026;2023-04-26T14:47:50;99792.41;;;12.72;31.86
68107;BME280;54892;47.488;19.026;2023-04-26T14:50:56;99818.06;;;12.82;32.92
68107;BME280;54892;47.488;19.026;2023-04-26T14:54:00;99810.19;;;12.72;34.03
68107;BME280;54892;47.488;19.026;2023-04-26T14:57:03;99824.53;;;12.60;33.85
68107;BME280;54892;47.488;19.026;2023-04-26T15:00:08;99817.22;;;12.31;33.09
68107;BME280;54892;47.488;19.026;2023-04-26T15:03:15;99816.94;;;12.43;33.77
68107;BME280;54892;47.488;19.026;2023-04-26T15:06:19;99825.69;;;12.44;32.79
68107;BME280;54892;47.488;19.026;2023-04-26T15:09:22;99821.41;;;12.48;32.74
68107;BME280;54892;47.488;19.026;2023-04-26T15:12:25;99823.44;;;12.61;32.84
68107;BME280;54892;47.488;19.026;2023-04-26T15:15:29;99831.31;;;12.77;32.74
68107;BME280;54892;47.488;19.026;2023-04-26T15:18:32;99826.75;;;12.88;32.88
68107;BME280;54892;47.488;19.026;2023-04-26T15:21:35;99828.41;;;12.78;33.10
68107;BME280;54892;47.488;19.026;2023-04-26T15:24:38;99827.16;;;12.66;33.65
68107;BME280;54892;47.488;19.026;2023-04-26T15:27:41;99821.44;;;12.43;34.07
68107;BME280;54892;47.488;19.026;2023-04-26T15:30:47;99819.81;;;12.52;34.48
68107;BME280;54892;47.488;19.026;2023-04-26T15:33:51;99817.41;;;12.56;34.50
68107;BME280;54892;47.488;19.026;2023-04-26T15:36:57;99814.94;;;12.70;34.57
68107;BME280;54892;47.488;19.026;2023-04-26T15:40:00;99812.53;;;12.78;34.00
68107;BME280;54892;47.488;19.026;2023-04-26T15:43:05;99818.91;;;12.72;33.60
68107;BME280;54892;47.488;19.026;2023-04-26T15:46:12;99821.19;;;12.89;33.84
68107;BME280;54892;47.488;19.026;2023-04-26T15:49:16;99811.88;;;12.97;34.27
68107;BME280;54892;47.488;19.026;2023-04-26T15:52:19;99812.41;;;12.99;34.34
68107;BME280;54892;47.488;19.026;2023-04-26T15:55:22;99825.13;;;12.97;33.84
68107;BME280;54892;47.488;19.026;2023-04-26T15:58:25;99825.34;;;13.01;33.14
68107;BME280;54892;47.488;19.026;2023-04-26T16:01:29;99825.97;;;12.87;31.85
68107;BME280;54892;47.488;19.026;2023-04-26T16:04:32;99834.09;;;12.51;31.06
68107;BME280;54892;47.488;19.026;2023-04-26T16:07:35;99834.41;;;12.44;31.55
68107;BME280;54892;47.488;19.026;2023-04-26T16:10:39;99833.91;;;12.37;31.89
68107;BME280;54892;47.488;19.026;2023-04-26T16:13:42;99837.91;;;12.24;32.12
68107;BME280;54892;47.488;19.026;2023-04-26T16:16:48;99843.19;;;12.29;31.82